sensor_id;sensor_type;location;lat;lon;timestamp;temperature;humidity
16879;DHT22;8556;52.218;9.884;2023-05-10T00:02:04;12.10;99.90
16879;DHT22;8556;52.218;9.884;2023-05-10T00:04:58;12.20;99.90
16879;DHT22;8556;52.218;9.884;2023-05-10T00:07:47;12.30;99.90
16879;DHT22;8556;52.218;9.884;2023-05-10T00:10:35;12.20;99.90
16879;DHT22;8556;52.218;9.884;2023-05-10T00:13:03;12.20;99.90
16879;DHT22;8556;52.218;9.884;2023-05-10T00:15:41;12.10;99.90
16879;DHT22;8556;52.218;9.884;2023-05-10T00:18:16;11.80;99.90
16879;DHT22;8556;52.218;9.884;2023-05-10T00:20:46;11.70;99.90
16879;DHT22;8556;52.218;9.884;2023-05-10T00:23:18;11.80;99.90
16879;DHT22;8556;52.218;9.884;2023-05-10T00:26:14;11.70;99.90
16879;DHT22;8556;52.218;9.884;2023-05-10T00:28:59;11.90;99.90
16879;DHT22;8556;52.218;9.884;2023-05-10T00:31:29;11.70;99.90
16879;DHT22;8556;52.218;9.884;2023-05-10T00:33:58;11.70;99.90
16879;DHT22;8556;52.218;9.884;2023-05-10T00:36:52;11.80;99.90
16879;DHT22;8556;52.218;9.884;2023-05-10T00:39:27;11.90;99.90
16879;DHT22;8556;52.218;9.884;2023-05-10T00:42:11;11.90;99.90
16879;DHT22;8556;52.218;9.884;2023-05-10T00:44:38;11.90;99.90
16879;DHT22;8556;52.218;9.884;2023-05-10T00:47:13;12.10;99.90
16879;DHT22;8556;52.218;9.884;2023-05-10T00:49:47;11.90;99.90
16879;DHT22;8556;52.218;9.884;2023-05-10T00:52:16;11.80;99.90
16879;DHT22;8556;52.218;9.884;2023-05-10T00:54:49;11.80;99.90
16879;DHT22;8556;52.218;9.884;2023-05-10T00:57:21;11.80;99.90
16879;DHT22;8556;52.218;9.884;2023-05-10T00:59:55;11.90;99.90
16879;DHT22;8556;52.218;9.884;2023-05-10T01:02:33;11.80;99.90
16879;DHT22;8556;52.218;9.884;2023-05-10T01:05:06;11.90;99.90
16879;DHT22;8556;52.218;9.884;2023-05-10T01:07:55;11.80;99.90
16879;DHT22;8556;52.218;9.884;2023-05-10T01:10:45;11.80;99.90
16879;DHT22;8556;52.218;9.884;2023-05-10T01:13:37;11.80;99.90
16879;DHT22;8556;52.218;9.884;2023-05-10T01:16:25;11.80;99.90
16879;DHT22;8556;52.218;9.884;2023-05-10T01:18:55;11.80;99.90
16879;DHT22;8556;52.218;9.884;2023-05-10T01:21:33;11.80;99.90
16879;DHT22;8556;52.218;9.884;2023-05-10T01:24:37;11.70;99.90
16879;DHT22;8556;52.218;9.884;2023-05-10T01:33:18;11.70;99.90
16879;DHT22;8556;52.218;9.884;2023-05-10T01:36:13;11.40;99.90
16879;DHT22;8556;52.218;9.884;2023-05-10T01:39:01;11.10;99.90
16879;DHT22;8556;52.218;9.884;2023-05-10T01:41:48;10.90;99.90
16879;DHT22;8556;52.218;9.884;2023-05-10T01:44:24;10.90;99.90
16879;DHT22;8556;52.218;9.884;2023-05-10T01:47:01;11.10;99.90
16879;DHT22;8556;52.218;9.884;2023-05-10T01:49:47;11.10;99.90
16879;DHT22;8556;52.218;9.884;2023-05-10T01:52:33;11.10;99.90
16879;DHT22;8556;52.218;9.884;2023-05-10T01:55:06;11.00;99.90
16879;DHT22;8556;52.218;9.884;2023-05-10T01:58:02;10.80;99.90
16879;DHT22;8556;52.218;9.884;2023-05-10T02:00:43;10.80;99.90
16879;DHT22;8556;52.218;9.884;2023-05-10T02:03:27;10.60;99.90
16879;DHT22;8556;52.218;9.884;2023-05-10T02:06:14;10.40;99.90
16879;DHT22;8556;52.218;9.884;2023-05-10T02:09:06;10.30;99.90
16879;DHT22;8556;52.218;9.884;2023-05-10T02:11:47;10.50;99.90
16879;DHT22;8556;52.218;9.884;2023-05-10T02:14:27;10.60;99.90
16879;DHT22;8556;52.218;9.884;2023-05-10T02:16:57;10.80;99.90
16879;DHT22;8556;52.218;9.884;2023-05-10T02:19:34;10.90;99.90
16879;DHT22;8556;52.218;9.884;2023-05-10T02:22:27;10.90;99.90
16879;DHT22;8556;52.218;9.884;2023-05-10T02:25:03;10.80;99.90
16879;DHT22;8556;52.218;9.884;2023-05-10T02:27:34;10.60;99.90
16879;DHT22;8556;52.218;9.884;2023-05-10T02:30:10;10.40;99.90
16879;DHT22;8556;52.218;9.884;2023-05-10T02:32:53;10.50;99.90
16879;DHT22;8556;52.218;9.884;2023-05-10T02:35:32;10.80;99.90
16879;DHT22;8556;52.218;9.884;2023-05-10T02:38:07;10.70;99.90
16879;DHT22;8556;52.218;9.884;2023-05-10T02:40:43;10.80;99.90
16879;DHT22;8556;52.218;9.884;2023-05-10T02:43:40;10.80;99.90
16879;DHT22;8556;52.218;9.884;2023-05-10T02:46:07;10.80;99.90
16879;DHT22;8556;52.218;9.884;2023-05-10T02:48:34;11.10;99.90
16879;DHT22;8556;52.218;9.884;2023-05-10T02:51:05;10.90;99.90
16879;DHT22;8556;52.218;9.884;2023-05-10T02:53:36;11.10;99.90
16879;DHT22;8556;52.218;9.884;2023-05-10T02:56:08;11.00;99.90
16879;DHT22;8556;52.218;9.884;2023-05-10T02:58:38;10.70;99.90
16879;DHT22;8556;52.218;9.884;2023-05-10T03:01:07;10.70;99.90
16879;DHT22;8556;52.218;9.884;2023-05-10T03:03:37;10.60;99.90
16879;DHT22;8556;52.218;9.884;2023-05-10T03:06:04;10.70;99.90
16879;DHT22;8556;52.218;9.884;2023-05-10T03:08:31;10.80;99.90
16879;DHT22;8556;52.218;9.884;2023-05-10T03:11:14;10.90;99.90
16879;DHT22;8556;52.218;9.884;2023-05-10T03:13:51;11.00;99.90
16879;DHT22;8556;52.218;9.884;2023-05-10T03:16:27;11.00;99.90
16879;DHT22;8556;52.218;9.884;2023-05-10T03:19:01;11.00;99.90
16879;DHT22;8556;52.218;9.884;2023-05-10T03:21:31;10.90;99.90
16879;DHT22;8556;52.218;9.884;2023-05-10T03:24:02;10.90;99.90
16879;DHT22;8556;52.218;9.884;2023-05-10T03:26:35;10.80;99.90
16879;DHT22;8556;52.218;9.884;2023-05-10T03:29:04;10.90;99.90
16879;DHT22;8556;52.218;9.884;2023-05-10T03:31:33;10.90;99.90
16879;DHT22;8556;52.218;9.884;2023-05-10T03:34:00;10.90;99.90
16879;DHT22;8556;52.218;9.884;2023-05-10T03:36:27;10.80;99.90
16879;DHT22;8556;52.218;9.884;2023-05-10T03:38:53;10.90;99.90
16879;DHT22;8556;52.218;9.884;2023-05-10T03:41:20;10.90;99.90
16879;DHT22;8556;52.218;9.884;2023-05-10T03:43:48;11.00;99.90
16879;DHT22;8556;52.218;9.884;2023-05-10T03:46:15;11.10;99.90
16879;DHT22;8556;52.218;9.884;2023-05-10T03:48:42;11.10;99.90
16879;DHT22;8556;52.218;9.884;2023-05-10T03:51:09;11.10;99.90
16879;DHT22;8556;52.218;9.884;2023-05-10T03:53:36;11.10;99.90
16879;DHT22;8556;52.218;9.884;2023-05-10T03:56:06;11.10;99.90
16879;DHT22;8556;52.218;9.884;2023-05-10T03:58:32;11.10;99.90
16879;DHT22;8556;52.218;9.884;2023-05-10T04:01:08;11.20;99.90
16879;DHT22;8556;52.218;9.884;2023-05-10T04:03:37;11.30;99.90
16879;DHT22;8556;52.218;9.884;2023-05-10T04:06:07;11.20;99.90
16879;DHT22;8556;52.218;9.884;2023-05-10T04:08:36;11.10;99.90
16879;DHT22;8556;52.218;9.884;2023-05-10T04:11:09;11.00;99.90
16879;DHT22;8556;52.218;9.884;2023-05-10T04:13:36;10.90;99.90
16879;DHT22;8556;52.218;9.884;2023-05-10T04:16:11;10.90;99.90
16879;DHT22;8556;52.218;9.884;2023-05-10T04:18:41;11.00;99.90
16879;DHT22;8556;52.218;9.884;2023-05-10T04:21:11;11.10;99.90
16879;DHT22;8556;52.218;9.884;2023-05-10T04:23:39;11.30;99.90
16879;DHT22;8556;52.218;9.884;2023-05-10T04:26:05;11.20;99.90
16879;DHT22;8556;52.218;9.884;2023-05-10T04:28:37;11.20;99.90
16879;DHT22;8556;52.218;9.884;2023-05-10T04:31:12;11.20;99.90
16879;DHT22;8556;52.218;9.884;2023-05-10T04:33:39;11.20;99.90
16879;DHT22;8556;52.218;9.884;2023-05-10T04:36:09;11.00;99.90
16879;DHT22;8556;52.218;9.884;2023-05-10T04:38:36;11.00;99.90
16879;DHT22;8556;52.218;9.884;2023-05-10T04:41:07;11.10;99.90
16879;DHT22;8556;52.218;9.884;2023-05-10T04:43:34;11.20;99.90
16879;DHT22;8556;52.218;9.884;2023-05-10T04:46:05;11.30;99.90
16879;DHT22;8556;52.218;9.884;2023-05-10T04:48:33;11.10;99.90
16879;DHT22;8556;52.218;9.884;2023-05-10T04:51:00;11.00;99.90
16879;DHT22;8556;52.218;9.884;2023-05-10T04:53:31;11.00;99.90
16879;DHT22;8556;52.218;9.884;2023-05-10T04:56:03;10.90;99.90
16879;DHT22;8556;52.218;9.884;2023-05-10T04:58:33;10.90;99.90
16879;DHT22;8556;52.218;9.884;2023-05-10T05:01:09;10.90;99.90
16879;DHT22;8556;52.218;9.884;2023-05-10T05:03:37;11.00;99.90
16879;DHT22;8556;52.218;9.884;2023-05-10T05:06:05;11.00;99.90
16879;DHT22;8556;52.218;9.884;2023-05-10T05:08:36;11.00;99.90
16879;DHT22;8556;52.218;9.884;2023-05-10T05:11:23;11.00;99.90
16879;DHT22;8556;52.218;9.884;2023-05-10T05:14:00;11.10;99.90
16879;DHT22;8556;52.218;9.884;2023-05-10T05:16:30;11.10;99.90
16879;DHT22;8556;52.218;9.884;2023-05-10T05:18:59;11.40;99.90
16879;DHT22;8556;52.218;9.884;2023-05-10T05:21:29;11.50;99.90
16879;DHT22;8556;52.218;9.884;2023-05-10T05:23:57;11.60;99.90
16879;DHT22;8556;52.218;9.884;2023-05-10T05:26:35;11.60;99.90
16879;DHT22;8556;52.218;9.884;2023-05-10T05:29:12;11.70;99.90
16879;DHT22;8556;52.218;9.884;2023-05-10T05:31:39;11.70;99.90
16879;DHT22;8556;52.218;9.884;2023-05-10T05:34:18;11.70;99.90
16879;DHT22;8556;52.218;9.884;2023-05-10T05:37:00;11.70;99.90
16879;DHT22;8556;52.218;9.884;2023-05-10T05:39:40;11.70;99.90
16879;DHT22;8556;52.218;9.884;2023-05-10T05:42:10;11.80;99.90
16879;DHT22;8556;52.218;9.884;2023-05-10T05:44:45;11.80;99.90
16879;DHT22;8556;52.218;9.884;2023-05-10T05:47:24;11.90;99.90
16879;DHT22;8556;52.218;9.884;2023-05-10T05:49:53;11.90;99.90
16879;DHT22;8556;52.218;9.884;2023-05-10T05:52:22;11.80;99.90
16879;DHT22;8556;52.218;9.884;2023-05-10T05:54:49;11.90;99.90
16879;DHT22;8556;52.218;9.884;2023-05-10T05:57:16;11.90;99.90
16879;DHT22;8556;52.218;9.884;2023-05-10T05:59:52;11.90;99.90
16879;DHT22;8556;52.218;9.884;2023-05-10T06:02:18;12.00;99.90
16879;DHT22;8556;52.218;9.884;2023-05-10T06:04:48;12.00;99.90
16879;DHT22;8556;52.218;9.884;2023-05-10T06:07:17;11.90;99.90
16879;DHT22;8556;52.218;9.884;2023-05-10T06:09:43;11.90;99.90
16879;DHT22;8556;52.218;9.884;2023-05-10T06:12:10;12.00;99.90
16879;DHT22;8556;52.218;9.884;2023-05-10T06:14:38;11.90;99.90
16879;DHT22;8556;52.218;9.884;2023-05-10T06:17:10;11.90;99.90
16879;DHT22;8556;52.218;9.884;2023-05-10T06:19:37;11.90;99.90
16879;DHT22;8556;52.218;9.884;2023-05-10T06:22:10;12.00;99.90
16879;DHT22;8556;52.218;9.884;2023-05-10T06:24:47;12.10;99.90
16879;DHT22;8556;52.218;9.884;2023-05-10T06:27:23;12.10;99.90
16879;DHT22;8556;52.218;9.884;2023-05-10T06:29:50;12.00;99.90
16879;DHT22;8556;52.218;9.884;2023-05-10T06:32:23;12.10;99.90
16879;DHT22;8556;52.218;9.884;2023-05-10T06:34:51;12.10;99.90
16879;DHT22;8556;52.218;9.884;2023-05-10T06:37:18;12.10;99.90
16879;DHT22;8556;52.218;9.884;2023-05-10T06:39:51;12.10;99.90
16879;DHT22;8556;52.218;9.884;2023-05-10T06:42:27;12.00;99.90
16879;DHT22;8556;52.218;9.884;2023-05-10T06:44:54;12.10;99.90
16879;DHT22;8556;52.218;9.884;2023-05-10T06:47:22;12.10;99.90
16879;DHT22;8556;52.218;9.884;2023-05-10T06:49:49;12.10;99.90
16879;DHT22;8556;52.218;9.884;2023-05-10T06:52:16;12.30;99.90
16879;DHT22;8556;52.218;9.884;2023-05-10T06:54:43;12.30;99.90
16879;DHT22;8556;52.218;9.884;2023-05-10T06:57:13;12.50;99.90
16879;DHT22;8556;52.218;9.884;2023-05-10T06:59:42;12.40;99.90
16879;DHT22;8556;52.218;9.884;2023-05-10T07:02:11;12.40;99.90
16879;DHT22;8556;52.218;9.884;2023-05-10T07:04:47;12.50;99.90
16879;DHT22;8556;52.218;9.884;2023-05-10T07:07:14;12.70;99.90
16879;DHT22;8556;52.218;9.884;2023-05-10T07:09:50;12.60;99.90
16879;DHT22;8556;52.218;9.884;2023-05-10T07:12:23;12.90;99.90
16879;DHT22;8556;52.218;9.884;2023-05-10T07:14:53;12.80;99.90
16879;DHT22;8556;52.218;9.884;2023-05-10T07:17:22;13.10;99.90
16879;DHT22;8556;52.218;9.884;2023-05-10T07:19:51;13.10;99.90
16879;DHT22;8556;52.218;9.884;2023-05-10T07:22:30;13.10;99.90
16879;DHT22;8556;52.218;9.884;2023-05-10T07:25:00;13.30;99.90
16879;DHT22;8556;52.218;9.884;2023-05-10T07:27:35;13.30;99.90
16879;DHT22;8556;52.218;9.884;2023-05-10T07:30:06;13.40;99.90
16879;DHT22;8556;52.218;9.884;2023-05-10T07:32:34;13.30;99.90
16879;DHT22;8556;52.218;9.884;2023-05-10T07:35:01;13.20;99.90
16879;DHT22;8556;52.218;9.884;2023-05-10T07:37:43;13.30;99.90
16879;DHT22;8556;52.218;9.884;2023-05-10T07:40:11;13.30;99.90
16879;DHT22;8556;52.218;9.884;2023-05-10T07:42:49;13.30;99.90
16879;DHT22;8556;52.218;9.884;2023-05-10T07:45:16;13.30;99.90
16879;DHT22;8556;52.218;9.884;2023-05-10T07:47:46;13.30;99.90
16879;DHT22;8556;52.218;9.884;2023-05-10T07:50:15;13.30;99.90
16879;DHT22;8556;52.218;9.884;2023-05-10T07:52:42;13.50;99.90
16879;DHT22;8556;52.218;9.884;2023-05-10T07:55:09;13.20;99.90
16879;DHT22;8556;52.218;9.884;2023-05-10T07:57:37;13.30;99.90
16879;DHT22;8556;52.218;9.884;2023-05-10T08:00:17;13.40;99.90
16879;DHT22;8556;52.218;9.884;2023-05-10T08:02:48;13.30;99.90
16879;DHT22;8556;52.218;9.884;2023-05-10T08:05:15;13.20;99.90
16879;DHT22;8556;52.218;9.884;2023-05-10T08:07:56;13.30;99.90
16879;DHT22;8556;52.218;9.884;2023-05-10T08:10:25;13.40;99.90
16879;DHT22;8556;52.218;9.884;2023-05-10T08:12:55;13.40;99.90
16879;DHT22;8556;52.218;9.884;2023-05-10T08:15:25;13.50;99.90
16879;DHT22;8556;52.218;9.884;2023-05-10T08:17:55;13.60;99.90
16879;DHT22;8556;52.218;9.884;2023-05-10T08:20:23;13.70;99.90
16879;DHT22;8556;52.218;9.884;2023-05-10T08:22:53;13.80;99.90
16879;DHT22;8556;52.218;9.884;2023-05-10T08:25:28;13.70;99.90
16879;DHT22;8556;52.218;9.884;2023-05-10T08:27:58;13.80;99.90
16879;DHT22;8556;52.218;9.884;2023-05-10T08:30:26;13.70;99.90
16879;DHT22;8556;52.218;9.884;2023-05-10T08:32:53;13.60;99.90
16879;DHT22;8556;52.218;9.884;2023-05-10T08:35:23;13.60;99.90
16879;DHT22;8556;52.218;9.884;2023-05-10T08:37:54;13.70;99.90
16879;DHT22;8556;52.218;9.884;2023-05-10T08:40:26;13.80;99.90
16879;DHT22;8556;52.218;9.884;2023-05-10T08:42:58;13.80;99.90
16879;DHT22;8556;52.218;9.884;2023-05-10T08:45:30;13.80;99.90
16879;DHT22;8556;52.218;9.884;2023-05-10T08:47:59;13.90;99.90
16879;DHT22;8556;52.218;9.884;2023-05-10T08:50:28;13.80;99.90
16879;DHT22;8556;52.218;9.884;2023-05-10T08:52:59;13.90;99.90
16879;DHT22;8556;52.218;9.884;2023-05-10T08:55:27;14.10;99.90
16879;DHT22;8556;52.218;9.884;2023-05-10T08:57:58;14.10;99.90
16879;DHT22;8556;52.218;9.884;2023-05-10T09:00:31;14.00;99.90
16879;DHT22;8556;52.218;9.884;2023-05-10T09:03:02;14.10;99.90
16879;DHT22;8556;52.218;9.884;2023-05-10T09:05:32;14.30;99.90
16879;DHT22;8556;52.218;9.884;2023-05-10T09:07:59;14.40;99.90
16879;DHT22;8556;52.218;9.884;2023-05-10T09:10:27;14.40;99.90
16879;DHT22;8556;52.218;9.884;2023-05-10T09:12:57;14.40;99.90
16879;DHT22;8556;52.218;9.884;2023-05-10T09:15:29;14.40;99.90
16879;DHT22;8556;52.218;9.884;2023-05-10T09:17:57;14.40;99.90
16879;DHT22;8556;52.218;9.884;2023-05-10T09:20:27;14.50;99.90
16879;DHT22;8556;52.218;9.884;2023-05-10T09:22:56;14.40;99.90
16879;DHT22;8556;52.218;9.884;2023-05-10T09:25:27;14.40;99.90
16879;DHT22;8556;52.218;9.884;2023-05-10T09:27:55;14.50;99.90
16879;DHT22;8556;52.218;9.884;2023-05-10T09:30:24;14.30;99.90
16879;DHT22;8556;52.218;9.884;2023-05-10T09:32:54;14.40;99.90
16879;DHT22;8556;52.218;9.884;2023-05-10T09:35:23;14.30;99.90
16879;DHT22;8556;52.218;9.884;2023-05-10T09:37:53;14.20;99.90
16879;DHT22;8556;52.218;9.884;2023-05-10T09:40:23;14.10;99.90
16879;DHT22;8556;52.218;9.884;2023-05-10T09:42:56;14.10;99.90
16879;DHT22;8556;52.218;9.884;2023-05-10T09:45:24;14.10;99.90
16879;DHT22;8556;52.218;9.884;2023-05-10T09:47:53;14.00;99.90
16879;DHT22;8556;52.218;9.884;2023-05-10T09:50:21;14.10;99.90
16879;DHT22;8556;52.218;9.884;2023-05-10T09:52:51;14.30;99.90
16879;DHT22;8556;52.218;9.884;2023-05-10T09:55:20;14.60;99.90
16879;DHT22;8556;52.218;9.884;2023-05-10T09:57:47;14.60;99.90
16879;DHT22;8556;52.218;9.884;2023-05-10T10:00:19;14.60;99.90
16879;DHT22;8556;52.218;9.884;2023-05-10T10:02:55;14.60;99.90
16879;DHT22;8556;52.218;9.884;2023-05-10T10:05:28;14.70;99.90
16879;DHT22;8556;52.218;9.884;2023-05-10T10:08:01;14.80;99.90
16879;DHT22;8556;52.218;9.884;2023-05-10T10:10:31;15.00;99.90
16879;DHT22;8556;52.218;9.884;2023-05-10T10:12:59;15.20;99.90
16879;DHT22;8556;52.218;9.884;2023-05-10T10:15:26;15.30;99.90
16879;DHT22;8556;52.218;9.884;2023-05-10T10:17:57;15.30;99.90
16879;DHT22;8556;52.218;9.884;2023-05-10T10:20:25;15.40;99.90
16879;DHT22;8556;52.218;9.884;2023-05-10T10:22:55;15.40;99.90
16879;DHT22;8556;52.218;9.884;2023-05-10T10:25:22;15.70;99.90
16879;DHT22;8556;52.218;9.884;2023-05-10T10:28:03;15.50;99.90
16879;DHT22;8556;52.218;9.884;2023-05-10T10:30:38;15.60;99.90
16879;DHT22;8556;52.218;9.884;2023-05-10T10:33:29;15.60;99.90
16879;DHT22;8556;52.218;9.884;2023-05-10T10:36:01;15.70;99.90
16879;DHT22;8556;52.218;9.884;2023-05-10T10:38:55;15.80;99.90
16879;DHT22;8556;52.218;9.884;2023-05-10T10:41:35;16.00;99.90
16879;DHT22;8556;52.218;9.884;2023-05-10T10:44:33;16.20;99.90
16879;DHT22;8556;52.218;9.884;2023-05-10T10:47:02;16.10;99.90
16879;DHT22;8556;52.218;9.884;2023-05-10T10:49:33;15.80;99.90
16879;DHT22;8556;52.218;9.884;2023-05-10T10:52:14;15.90;99.90
16879;DHT22;8556;52.218;9.884;2023-05-10T10:54:41;16.00;99.90
16879;DHT22;8556;52.218;9.884;2023-05-10T10:57:18;16.10;99.90
16879;DHT22;8556;52.218;9.884;2023-05-10T10:59:46;16.30;99.90
16879;DHT22;8556;52.218;9.884;2023-05-10T11:02:34;16.30;99.90
16879;DHT22;8556;52.218;9.884;2023-05-10T11:05:33;16.40;99.90
16879;DHT22;8556;52.218;9.884;2023-05-10T11:08:07;16.40;99.90
16879;DHT22;8556;52.218;9.884;2023-05-10T11:10:35;16.40;99.90
16879;DHT22;8556;52.218;9.884;2023-05-10T11:13:03;16.30;99.90
16879;DHT22;8556;52.218;9.884;2023-05-10T11:15:31;16.40;99.90
16879;DHT22;8556;52.218;9.884;2023-05-10T11:17:59;16.60;99.90
16879;DHT22;8556;52.218;9.884;2023-05-10T11:20:28;16.80;99.90
16879;DHT22;8556;52.218;9.884;2023-05-10T11:23:13;16.80;99.90
16879;DHT22;8556;52.218;9.884;2023-05-10T11:25:43;17.00;99.90
16879;DHT22;8556;52.218;9.884;2023-05-10T11:28:10;16.70;99.90
16879;DHT22;8556;52.218;9.884;2023-05-10T11:30:38;16.90;99.90
16879;DHT22;8556;52.218;9.884;2023-05-10T11:33:06;16.80;99.90
16879;DHT22;8556;52.218;9.884;2023-05-10T11:35:39;17.10;99.90
16879;DHT22;8556;52.218;9.884;2023-05-10T11:38:07;17.20;99.90
16879;DHT22;8556;52.218;9.884;2023-05-10T11:40:37;17.50;99.90
16879;DHT22;8556;52.218;9.884;2023-05-10T11:43:05;17.40;99.90
16879;DHT22;8556;52.218;9.884;2023-05-10T11:45:41;17.60;99.90
16879;DHT22;8556;52.218;9.884;2023-05-10T11:48:08;18.00;99.90
16879;DHT22;8556;52.218;9.884;2023-05-10T11:50:35;18.10;99.90
16879;DHT22;8556;52.218;9.884;2023-05-10T11:53:03;18.50;99.90
16879;DHT22;8556;52.218;9.884;2023-05-10T11:55:33;18.90;99.90
16879;DHT22;8556;52.218;9.884;2023-05-10T11:58:01;19.30;99.90
16879;DHT22;8556;52.218;9.884;2023-05-10T12:00:28;18.70;99.90
16879;DHT22;8556;52.218;9.884;2023-05-10T12:02:56;18.50;99.90
16879;DHT22;8556;52.218;9.884;2023-05-10T12:05:23;18.80;99.90
16879;DHT22;8556;52.218;9.884;2023-05-10T12:07:53;19.30;99.90
16879;DHT22;8556;52.218;9.884;2023-05-10T12:10:38;19.30;99.90
16879;DHT22;8556;52.218;9.884;2023-05-10T12:13:05;19.00;99.90
16879;DHT22;8556;52.218;9.884;2023-05-10T12:15:32;18.60;99.90
16879;DHT22;8556;52.218;9.884;2023-05-10T12:18:01;18.30;99.90
16879;DHT22;8556;52.218;9.884;2023-05-10T12:20:28;18.10;99.90
16879;DHT22;8556;52.218;9.884;2023-05-10T12:22:56;17.60;99.90
16879;DHT22;8556;52.218;9.884;2023-05-10T12:25:28;17.60;99.90
16879;DHT22;8556;52.218;9.884;2023-05-10T12:27:58;17.80;99.90
16879;DHT22;8556;52.218;9.884;2023-05-10T12:30:27;17.60;99.90
16879;DHT22;8556;52.218;9.884;2023-05-10T12:32:59;17.20;99.90
16879;DHT22;8556;52.218;9.884;2023-05-10T12:35:29;16.80;99.90
16879;DHT22;8556;52.218;9.884;2023-05-10T12:37:56;16.20;99.90
16879;DHT22;8556;52.218;9.884;2023-05-10T12:40:23;15.90;99.90
16879;DHT22;8556;52.218;9.884;2023-05-10T12:42:51;15.60;99.90
16879;DHT22;8556;52.218;9.884;2023-05-10T12:45:19;15.20;99.90
16879;DHT22;8556;52.218;9.884;2023-05-10T12:47:46;15.70;99.90
16879;DHT22;8556;52.218;9.884;2023-05-10T12:50:13;15.70;99.90
16879;DHT22;8556;52.218;9.884;2023-05-10T12:52:44;15.80;99.90
16879;DHT22;8556;52.218;9.884;2023-05-10T12:55:14;15.80;99.90
16879;DHT22;8556;52.218;9.884;2023-05-10T12:57:41;15.80;99.90
16879;DHT22;8556;52.218;9.884;2023-05-10T13:00:08;15.70;99.90
16879;DHT22;8556;52.218;9.884;2023-05-10T13:02:37;15.80;99.90
16879;DHT22;8556;52.218;9.884;2023-05-10T13:05:04;16.00;99.90
16879;DHT22;8556;52.218;9.884;2023-05-10T13:07:31;16.00;99.90
16879;DHT22;8556;52.218;9.884;2023-05-10T13:09:58;16.40;99.90
16879;DHT22;8556;52.218;9.884;2023-05-10T13:12:25;16.40;99.90
16879;DHT22;8556;52.218;9.884;2023-05-10T13:14:52;16.50;99.90
16879;DHT22;8556;52.218;9.884;2023-05-10T13:17:18;16.70;99.90
16879;DHT22;8556;52.218;9.884;2023-05-10T13:19:46;16.70;99.90
16879;DHT22;8556;52.218;9.884;2023-05-10T13:22:13;17.20;99.90
16879;DHT22;8556;52.218;9.884;2023-05-10T13:24:43;17.20;99.90
16879;DHT22;8556;52.218;9.884;2023-05-10T13:27:10;17.10;99.90
16879;DHT22;8556;52.218;9.884;2023-05-10T13:29:37;17.30;99.90
16879;DHT22;8556;52.218;9.884;2023-05-10T13:32:04;17.80;99.90
16879;DHT22;8556;52.218;9.884;2023-05-10T13:34:31;17.90;99.90
16879;DHT22;8556;52.218;9.884;2023-05-10T13:36:59;17.90;99.90
16879;DHT22;8556;52.218;9.884;2023-05-10T13:39:28;17.50;99.90
16879;DHT22;8556;52.218;9.884;2023-05-10T13:41:58;17.40;99.90
16879;DHT22;8556;52.218;9.884;2023-05-10T13:44:27;17.60;99.90
16879;DHT22;8556;52.218;9.884;2023-05-10T13:46:55;17.50;99.90
16879;DHT22;8556;52.218;9.884;2023-05-10T13:49:22;17.50;99.90
16879;DHT22;8556;52.218;9.884;2023-05-10T13:51:52;17.40;99.90
16879;DHT22;8556;52.218;9.884;2023-05-10T13:54:20;17.30;99.90
16879;DHT22;8556;52.218;9.884;2023-05-10T13:56:48;17.60;99.90
16879;DHT22;8556;52.218;9.884;2023-05-10T13:59:14;17.60;99.90
16879;DHT22;8556;52.218;9.884;2023-05-10T14:01:41;17.50;99.90
16879;DHT22;8556;52.218;9.884;2023-05-10T14:04:09;17.40;99.90
16879;DHT22;8556;52.218;9.884;2023-05-10T14:06:36;17.30;99.90
16879;DHT22;8556;52.218;9.884;2023-05-10T14:09:03;17.60;99.90
16879;DHT22;8556;52.218;9.884;2023-05-10T14:11:31;17.70;99.90
16879;DHT22;8556;52.218;9.884;2023-05-10T14:13:58;17.40;99.90
16879;DHT22;8556;52.218;9.884;2023-05-10T14:16:25;17.50;99.90
16879;DHT22;8556;52.218;9.884;2023-05-10T14:18:52;17.60;99.90
16879;DHT22;8556;52.218;9.884;2023-05-10T14:21:19;17.70;99.90
16879;DHT22;8556;52.218;9.884;2023-05-10T14:23:46;17.90;99.90
16879;DHT22;8556;52.218;9.884;2023-05-10T14:26:13;18.10;99.90
16879;DHT22;8556;52.218;9.884;2023-05-10T14:28:41;17.90;99.90
16879;DHT22;8556;52.218;9.884;2023-05-10T14:31:08;18.10;99.90
16879;DHT22;8556;52.218;9.884;2023-05-10T14:33:39;18.10;99.90
16879;DHT22;8556;52.218;9.884;2023-05-10T14:36:08;18.00;99.90
16879;DHT22;8556;52.218;9.884;2023-05-10T14:38:37;18.00;99.90
16879;DHT22;8556;52.218;9.884;2023-05-10T14:41:04;18.00;99.90
16879;DHT22;8556;52.218;9.884;2023-05-10T14:43:31;17.90;99.90
16879;DHT22;8556;52.218;9.884;2023-05-10T14:45:59;18.00;99.90
16879;DHT22;8556;52.218;9.884;2023-05-10T14:48:26;18.10;99.90
16879;DHT22;8556;52.218;9.884;2023-05-10T14:50:56;18.00;99.90
16879;DHT22;8556;52.218;9.884;2023-05-10T14:53:25;17.90;99.90
16879;DHT22;8556;52.218;9.884;2023-05-10T14:55:52;17.70;99.90
16879;DHT22;8556;52.218;9.884;2023-05-10T14:58:19;17.90;99.90
16879;DHT22;8556;52.218;9.884;2023-05-10T15:00:48;17.90;99.90
16879;DHT22;8556;52.218;9.884;2023-05-10T15:03:16;17.90;99.90
16879;DHT22;8556;52.218;9.884;2023-05-10T15:05:43;18.00;99.90
16879;DHT22;8556;52.218;9.884;2023-05-10T15:08:10;18.20;99.90
16879;DHT22;8556;52.218;9.884;2023-05-10T15:10:39;18.20;99.90
16879;DHT22;8556;52.218;9.884;2023-05-10T15:13:05;18.20;99.90
16879;DHT22;8556;52.218;9.884;2023-05-10T15:15:32;18.00;99.90
16879;DHT22;8556;52.218;9.884;2023-05-10T15:17:59;18.00;99.90
16879;DHT22;8556;52.218;9.884;2023-05-10T15:20:27;17.90;99.90
16879;DHT22;8556;52.218;9.884;2023-05-10T15:22:54;18.00;99.90
16879;DHT22;8556;52.218;9.884;2023-05-10T15:25:21;18.00;99.90
16879;DHT22;8556;52.218;9.884;2023-05-10T15:27:49;17.90;99.90
16879;DHT22;8556;52.218;9.884;2023-05-10T15:30:15;17.80;99.90
16879;DHT22;8556;52.218;9.884;2023-05-10T15:32:42;17.60;99.90
16879;DHT22;8556;52.218;9.884;2023-05-10T15:35:09;17.60;99.90
16879;DHT22;8556;52.218;9.884;2023-05-10T15:37:38;17.50;99.90
16879;DHT22;8556;52.218;9.884;2023-05-10T15:40:06;17.50;99.90
16879;DHT22;8556;52.218;9.884;2023-05-10T15:42:34;17.40;99.90
16879;DHT22;8556;52.218;9.884;2023-05-10T15:45:01;17.30;99.90
16879;DHT22;8556;52.218;9.884;2023-05-10T15:47:29;17.20;99.90
16879;DHT22;8556;52.218;9.884;2023-05-10T15:49:56;17.00;99.90
16879;DHT22;8556;52.218;9.884;2023-05-10T15:52:23;17.20;99.90
16879;DHT22;8556;52.218;9.884;2023-05-10T15:54:54;17.00;99.90
16879;DHT22;8556;52.218;9.884;2023-05-10T15:57:23;17.10;99.90
16879;DHT22;8556;52.218;9.884;2023-05-10T15:59:50;16.90;99.90
16879;DHT22;8556;52.218;9.884;2023-05-10T16:02:17;17.00;99.90
16879;DHT22;8556;52.218;9.884;2023-05-10T16:04:44;16.60;99.90
16879;DHT22;8556;52.218;9.884;2023-05-10T16:07:11;16.10;99.90
16879;DHT22;8556;52.218;9.884;2023-05-10T16:09:38;15.90;99.90
16879;DHT22;8556;52.218;9.884;2023-05-10T16:12:07;15.60;99.90
16879;DHT22;8556;52.218;9.884;2023-05-10T16:14:36;15.20;99.90
16879;DHT22;8556;52.218;9.884;2023-05-10T16:17:03;15.00;99.90
16879;DHT22;8556;52.218;9.884;2023-05-10T16:19:30;14.90;99.90